createdAt,value
2022-09-07T03:02:50.187Z,18.40
2022-09-07T03:05:21.734Z,18.40
2022-09-07T03:07:53.822Z,18.50
2022-09-07T03:10:22.309Z,18.40
2022-09-07T03:12:52.000Z,18.40
2022-09-07T03:15:29.441Z,18.50
2022-09-07T03:17:58.900Z,18.40
2022-09-07T03:20:26.855Z,18.40
2022-09-07T03:22:54.739Z,18.40
2022-09-07T03:25:22.773Z,18.40
2022-09-07T03:27:50.800Z,18.40
2022-09-07T03:30:18.877Z,18.20
2022-09-07T03:32:47.474Z,18.20
2022-09-07T03:35:17.916Z,18.20
2022-09-07T03:37:46.234Z,18.20
2022-09-07T03:40:15.951Z,18.20
2022-09-07T03:42:44.439Z,18.30
2022-09-07T03:45:12.715Z,18.30
2022-09-07T03:47:41.074Z,18.30
2022-09-07T03:50:10.041Z,18.20
2022-09-07T03:52:39.474Z,18.30
2022-09-07T03:55:07.846Z,18.30
2022-09-07T03:57:36.198Z,18.30
2022-09-07T04:00:05.533Z,18.30
2022-09-07T04:02:40.335Z,18.30
2022-09-07T04:05:08.986Z,18.20
2022-09-07T04:07:36.913Z,18.20
2022-09-07T04:10:06.583Z,18.30
2022-09-07T04:12:34.453Z,18.30
2022-09-07T04:15:02.306Z,18.20
2022-09-07T04:17:30.167Z,18.00
2022-09-07T04:19:58.023Z,17.90
2022-09-07T04:22:26.011Z,17.90
2022-09-07T04:24:53.872Z,18.00
2022-09-07T04:27:24.159Z,18.10
2022-09-07T04:29:52.000Z,18.10
2022-09-07T04:32:19.910Z,18.20
2022-09-07T04:34:48.761Z,18.20
2022-09-07T04:37:16.619Z,18.10
2022-09-07T04:39:44.574Z,17.90
2022-09-07T04:42:12.603Z,18.00
2022-09-07T04:44:41.867Z,18.00
2022-09-07T04:47:09.722Z,18.00
2022-09-07T04:49:37.621Z,18.00
2022-09-07T04:52:05.478Z,18.10
2022-09-07T04:54:33.323Z,18.10
2022-09-07T04:57:01.210Z,18.10
2022-09-07T04:59:29.312Z,18.10
2022-09-07T05:01:59.393Z,18.10
2022-09-07T05:04:27.333Z,18.10
2022-09-07T05:06:55.474Z,18.00
2022-09-07T05:09:23.353Z,18.00
2022-09-07T05:11:51.212Z,18.00
2022-09-07T05:14:19.095Z,18.00
2022-09-07T05:16:47.746Z,18.00
2022-09-07T05:19:17.101Z,18.00
2022-09-07T05:21:44.944Z,18.00
2022-09-07T05:24:12.808Z,18.10
2022-09-07T05:26:40.659Z,18.00
2022-09-07T05:31:57.290Z,18.10
2022-09-07T05:37:00.148Z,18.20
2022-09-07T05:39:28.416Z,18.20
2022-09-07T05:41:56.404Z,18.30
2022-09-07T05:47:13.038Z,18.40
2022-09-07T05:49:42.275Z,18.40
2022-09-07T05:52:10.514Z,18.40
2022-09-07T05:54:38.619Z,18.50
2022-09-07T05:57:07.200Z,18.50
2022-09-07T05:59:35.138Z,18.60
2022-09-07T06:02:03.108Z,18.60
2022-09-07T06:04:31.343Z,18.60
2022-09-07T06:12:36.995Z,18.60
2022-09-07T06:15:06.719Z,18.70
2022-09-07T06:17:34.570Z,18.80
2022-09-07T06:20:04.609Z,18.80
2022-09-07T06:22:36.205Z,18.90
2022-09-07T06:25:04.822Z,19.00
2022-09-07T06:27:32.949Z,19.00
2022-09-07T06:30:00.778Z,19.10
2022-09-07T06:32:45.236Z,19.20
2022-09-07T06:35:13.483Z,19.20
2022-09-07T06:37:44.131Z,19.30
2022-09-07T06:40:12.662Z,19.40
2022-09-07T06:42:41.018Z,19.40
2022-09-07T06:45:11.635Z,19.30
2022-09-07T06:47:40.768Z,19.30
2022-09-07T06:50:10.192Z,19.30
2022-09-07T06:55:29.192Z,19.50
2022-09-07T06:57:57.183Z,19.60
2022-09-07T07:00:25.287Z,19.60
2022-09-07T07:02:53.226Z,19.60
2022-09-07T07:05:21.172Z,19.60
2022-09-07T07:07:49.041Z,19.70
2022-09-07T07:10:19.778Z,19.70
2022-09-07T07:12:52.955Z,19.50
2022-09-07T07:15:21.912Z,19.50
2022-09-07T07:17:58.107Z,19.60
2022-09-07T07:20:28.745Z,19.60
2022-09-07T07:22:56.657Z,19.70
2022-09-07T07:25:24.686Z,19.70
2022-09-07T07:27:54.122Z,19.70
2022-09-07T07:30:22.410Z,19.80
2022-09-07T07:32:50.288Z,19.70
2022-09-07T07:35:18.301Z,19.60
2022-09-07T07:37:46.686Z,19.30
2022-09-07T07:40:15.388Z,19.40
2022-09-07T07:42:44.721Z,19.40
2022-09-07T07:48:03.647Z,19.50
2022-09-07T07:50:32.527Z,19.60
2022-09-07T07:55:49.363Z,19.70
2022-09-07T07:58:17.590Z,19.80
2022-09-07T08:00:55.860Z,19.90
2022-09-07T08:03:25.803Z,20.00
2022-09-07T08:05:53.942Z,19.90
2022-09-07T08:08:24.005Z,20.00
2022-09-07T08:10:51.994Z,19.90
2022-09-07T08:13:21.361Z,19.80
2022-09-07T08:15:50.890Z,19.80
2022-09-07T08:18:18.969Z,19.80
2022-09-07T08:20:48.442Z,19.80
2022-09-07T08:23:16.275Z,19.80
2022-09-07T08:25:51.516Z,19.90
2022-09-07T08:28:19.914Z,20.10
2022-09-07T08:30:47.739Z,20.30
2022-09-07T08:33:17.458Z,20.40
2022-09-07T08:35:56.197Z,20.50
2022-09-07T08:38:24.518Z,20.40
2022-09-07T08:40:52.811Z,20.50
2022-09-07T08:43:40.934Z,20.60
2022-09-07T08:46:27.972Z,20.60
2022-09-07T08:48:57.160Z,20.80
2022-09-07T08:51:33.730Z,20.90
2022-09-07T08:54:02.814Z,21.00
2022-09-07T08:56:33.875Z,21.00
2022-09-07T08:59:07.508Z,21.20
2022-09-07T09:01:41.106Z,21.20
2022-09-07T09:04:16.673Z,21.20
2022-09-07T09:06:53.940Z,21.30
2022-09-07T09:09:33.594Z,21.40
2022-09-07T09:12:13.288Z,21.40
2022-09-07T09:14:55.667Z,21.60
2022-09-07T09:17:30.391Z,21.60
2022-09-07T09:20:13.264Z,21.60
2022-09-07T09:22:41.148Z,21.60
2022-09-07T09:25:19.002Z,21.80
2022-09-07T09:27:47.279Z,21.80
2022-09-07T09:30:18.001Z,21.90
2022-09-07T09:32:49.033Z,22.10
2022-09-07T09:35:24.287Z,22.30
2022-09-07T09:37:52.102Z,22.50
2022-09-07T09:40:25.982Z,22.80
2022-09-07T09:43:02.082Z,22.90
2022-09-07T09:46:12.294Z,22.80
2022-09-07T09:48:29.421Z,22.70
2022-09-07T09:53:57.640Z,22.80
2022-09-07T09:56:41.604Z,23.20
2022-09-07T10:05:28.558Z,24.10
2022-09-07T10:07:57.236Z,24.00
2022-09-07T10:10:26.931Z,23.80
2022-09-07T10:12:56.404Z,23.70
2022-09-07T10:15:41.987Z,23.60
2022-09-07T10:18:21.118Z,23.50
2022-09-07T10:20:50.310Z,23.50
2022-09-07T10:23:23.444Z,23.40
2022-09-07T10:25:51.320Z,23.40
2022-09-07T10:28:21.392Z,23.60
2022-09-07T10:31:03.793Z,23.70
2022-09-07T10:33:43.410Z,23.80
2022-09-07T10:36:17.415Z,23.80
2022-09-07T10:38:51.017Z,23.80
2022-09-07T10:41:24.075Z,23.80
2022-09-07T10:43:52.345Z,23.80
2022-09-07T10:46:58.757Z,23.80
2022-09-07T10:49:34.075Z,24.00
2022-09-07T10:52:12.975Z,24.00
2022-09-07T10:54:49.949Z,24.20
2022-09-07T10:57:33.396Z,24.30
2022-09-07T11:00:09.677Z,24.30
2022-09-07T11:06:07.506Z,24.40
2022-09-07T11:14:28.339Z,24.40
2022-09-07T11:17:00.255Z,24.30
2022-09-07T11:19:38.201Z,24.30
2022-09-07T11:22:19.781Z,24.40
2022-09-07T11:27:48.170Z,24.70
2022-09-07T11:30:22.529Z,24.90
2022-09-07T11:33:00.626Z,25.10
2022-09-07T11:35:48.433Z,25.30
2022-09-07T11:38:25.578Z,25.60
2022-09-07T11:41:20.322Z,25.80
2022-09-07T11:44:01.792Z,25.80
2022-09-07T11:46:37.219Z,25.80
2022-09-07T11:49:07.003Z,26.30
2022-09-07T11:51:42.398Z,27.00
2022-09-07T11:54:27.755Z,27.30
2022-09-07T11:57:02.382Z,27.30
2022-09-07T11:59:42.597Z,27.20
2022-09-07T12:02:58.079Z,27.00
2022-09-07T12:05:49.741Z,26.90
2022-09-07T12:08:30.575Z,27.10
2022-09-07T12:11:11.441Z,27.90
2022-09-07T12:14:09.429Z,28.70
2022-09-07T12:16:51.390Z,28.50
2022-09-07T12:19:21.662Z,28.00
2022-09-07T12:21:56.172Z,27.00
2022-09-07T12:24:42.205Z,26.10
2022-09-07T12:27:32.642Z,25.60
2022-09-07T12:30:36.636Z,25.40
2022-09-07T12:33:21.644Z,25.40
2022-09-07T12:35:49.506Z,25.30
2022-09-07T12:38:54.152Z,25.10
2022-09-07T12:41:23.646Z,24.90
2022-09-07T12:44:07.834Z,24.70
2022-09-07T12:47:24.703Z,24.60
2022-09-07T12:50:19.511Z,24.60
2022-09-07T12:53:18.070Z,24.60
2022-09-07T12:56:15.962Z,24.70
2022-09-07T12:58:53.957Z,24.70
2022-09-07T13:01:36.420Z,24.80
2022-09-07T13:04:26.151Z,24.90
2022-09-07T13:07:13.385Z,25.10
2022-09-07T13:09:42.333Z,25.10
2022-09-07T13:15:35.621Z,25.40
2022-09-07T13:18:04.758Z,25.40
2022-09-07T13:20:39.087Z,25.50
2022-09-07T13:23:25.178Z,25.50
2022-09-07T13:25:56.723Z,25.50
2022-09-07T13:28:32.759Z,25.60
2022-09-07T13:31:09.613Z,25.90
2022-09-07T13:33:52.736Z,26.20
2022-09-07T13:36:35.647Z,26.50
2022-09-07T13:39:09.260Z,27.00
2022-09-07T13:41:42.113Z,27.50
2022-09-07T13:44:25.070Z,28.10
2022-09-07T13:47:18.398Z,28.20
2022-09-07T13:50:02.743Z,28.20
2022-09-07T13:52:44.707Z,28.10
2022-09-07T13:55:26.379Z,28.20
2022-09-07T13:58:05.913Z,28.10
2022-09-07T14:00:34.804Z,27.70
2022-09-07T14:03:07.270Z,27.60
2022-09-07T14:05:36.171Z,27.50
2022-09-07T14:08:04.263Z,27.50
2022-09-07T14:10:33.598Z,27.40
2022-09-07T14:13:07.878Z,27.30
2022-09-07T14:15:40.576Z,27.10
2022-09-07T14:18:13.817Z,27.00
2022-09-07T14:20:44.452Z,27.00
2022-09-07T14:23:21.157Z,26.90
2022-09-07T14:26:20.252Z,26.60
2022-09-07T14:28:49.462Z,26.50
2022-09-07T14:31:19.587Z,26.50
2022-09-07T14:33:52.004Z,26.50
2022-09-07T14:36:43.521Z,26.40
2022-09-07T14:39:12.627Z,26.40
2022-09-07T14:41:42.998Z,26.50
2022-09-07T14:44:30.680Z,26.50
2022-09-07T14:47:01.143Z,26.50
2022-09-07T14:49:29.015Z,26.50
2022-09-07T14:51:57.175Z,26.40
2022-09-07T14:54:28.539Z,26.30
2022-09-07T14:57:03.543Z,26.10
2022-09-07T14:59:40.513Z,25.90
2022-09-07T15:02:34.619Z,25.90
2022-09-07T15:05:23.650Z,25.80
2022-09-07T15:07:53.469Z,25.70
2022-09-07T15:10:37.745Z,25.70
2022-09-07T15:13:22.584Z,25.70
2022-09-07T15:15:58.522Z,25.70
2022-09-07T15:18:55.617Z,25.70
2022-09-07T15:21:25.275Z,25.70
2022-09-07T15:23:54.901Z,25.70
2022-09-07T15:29:15.526Z,25.80
2022-09-07T15:31:54.315Z,25.80
2022-09-07T15:34:27.531Z,25.80
2022-09-07T15:36:57.671Z,25.90
2022-09-07T15:39:29.655Z,26.10
2022-09-07T15:42:00.633Z,26.20
2022-09-07T15:44:47.545Z,26.20
2022-09-07T15:50:03.535Z,26.10
2022-09-07T15:52:33.747Z,25.90
2022-09-07T15:55:01.574Z,25.80
2022-09-07T16:00:20.911Z,25.80
2022-09-07T16:03:05.743Z,25.80
2022-09-07T16:05:34.319Z,26.00
2022-09-07T16:10:54.254Z,26.00
2022-09-07T16:13:24.039Z,26.00
2022-09-07T16:15:53.521Z,26.00
2022-09-07T16:18:21.398Z,26.00
2022-09-07T16:20:52.694Z,25.90
2022-09-07T16:23:21.032Z,25.90
2022-09-07T16:25:59.378Z,25.80
2022-09-07T16:28:27.772Z,25.80
2022-09-07T16:30:57.884Z,25.70
2022-09-07T16:33:34.390Z,25.70
2022-09-07T16:36:06.774Z,25.60
2022-09-07T16:38:50.916Z,25.50
2022-09-07T16:41:20.774Z,25.40
2022-09-07T16:43:48.667Z,25.30
2022-09-07T16:46:20.305Z,25.20
2022-09-07T16:48:48.572Z,25.10
2022-09-07T16:51:19.653Z,25.10
2022-09-07T16:53:48.758Z,25.00
2022-09-07T16:56:18.894Z,24.90
2022-09-07T16:58:48.999Z,24.90
2022-09-07T17:01:20.404Z,24.80
2022-09-07T17:03:50.309Z,24.80
2022-09-07T17:06:21.841Z,24.70
2022-09-07T17:08:50.008Z,24.70
2022-09-07T17:11:20.189Z,24.60
2022-09-07T17:13:48.784Z,24.60
2022-09-07T17:16:20.638Z,24.50
2022-09-07T17:21:39.022Z,24.40
2022-09-07T17:24:08.233Z,24.30
2022-09-07T17:26:36.200Z,24.30
2022-09-07T17:29:04.099Z,24.20
2022-09-07T17:34:23.602Z,24.10
2022-09-07T17:36:51.682Z,24.10
2022-09-07T17:39:19.987Z,24.00
2022-09-07T17:41:49.524Z,23.90
2022-09-07T17:44:17.371Z,23.80
2022-09-07T17:46:46.577Z,23.80
2022-09-07T17:49:16.460Z,23.80
2022-09-07T17:51:45.632Z,23.70
2022-09-07T17:54:15.885Z,23.70
2022-09-07T17:56:44.688Z,23.60
2022-09-07T18:02:02.359Z,23.50
2022-09-07T18:04:30.248Z,23.50
2022-09-07T18:06:58.122Z,23.50
2022-09-07T18:09:26.018Z,23.40
2022-09-07T18:11:53.866Z,23.40
2022-09-07T18:14:21.765Z,23.30
2022-09-07T18:16:51.035Z,23.30
2022-09-07T18:19:20.423Z,23.30
2022-09-07T18:21:49.265Z,23.30
2022-09-07T18:24:19.653Z,23.30
2022-09-07T18:26:51.215Z,23.20
2022-09-07T18:29:36.748Z,23.20
2022-09-07T18:32:08.840Z,23.20
2022-09-07T18:34:41.410Z,23.10
2022-09-07T18:37:11.890Z,23.00
2022-09-07T18:39:40.709Z,23.00
2022-09-07T18:42:09.363Z,23.00
2022-09-07T18:47:28.827Z,22.80
2022-09-07T18:49:58.976Z,22.80
2022-09-07T18:55:15.766Z,22.70
2022-09-07T18:57:43.720Z,22.70
2022-09-07T19:00:13.734Z,22.60
2022-09-07T19:02:41.751Z,22.60
2022-09-07T19:07:59.469Z,22.50
2022-09-07T19:10:27.426Z,22.40
2022-09-07T19:12:55.224Z,22.30
2022-09-07T19:15:24.161Z,22.30
2022-09-07T19:17:51.973Z,22.20
2022-09-07T19:20:21.329Z,22.20
2022-09-07T19:22:49.128Z,22.10
2022-09-07T19:25:17.279Z,22.10
2022-09-07T19:27:45.146Z,22.10
2022-09-07T19:30:13.789Z,22.10
2022-09-07T19:32:41.599Z,22.10
2022-09-07T19:35:10.109Z,22.10
2022-09-07T19:37:39.426Z,22.10
2022-09-07T19:40:10.243Z,22.10
2022-09-07T19:42:38.147Z,22.10
2022-09-07T19:45:07.155Z,22.00
2022-09-07T19:47:35.471Z,22.10
2022-09-07T19:50:03.354Z,22.00
2022-09-07T19:52:31.303Z,22.00
2022-09-07T19:55:02.683Z,22.00
2022-09-07T19:57:30.778Z,21.90
2022-09-07T19:59:59.139Z,21.90
2022-09-07T20:02:27.227Z,21.80
2022-09-07T20:04:55.557Z,21.80
2022-09-07T20:07:23.548Z,21.80
2022-09-07T20:09:52.325Z,21.70
2022-09-07T20:12:21.863Z,21.60
2022-09-07T20:14:49.819Z,21.60
2022-09-07T20:17:18.789Z,21.50
2022-09-07T20:19:46.651Z,21.40
2022-09-07T20:22:14.866Z,21.40
2022-09-07T20:24:43.676Z,21.30
2022-09-07T20:27:11.578Z,21.30
2022-09-07T20:29:40.919Z,21.30
2022-09-07T20:32:08.899Z,21.30
2022-09-07T20:34:37.529Z,21.30
2022-09-07T20:37:06.360Z,21.20
2022-09-07T20:39:38.504Z,21.20
2022-09-07T20:42:08.071Z,21.10
2022-09-07T20:44:36.047Z,21.10
2022-09-07T20:47:05.567Z,21.00
2022-09-07T20:49:33.537Z,21.00
2022-09-07T20:52:01.366Z,21.00
2022-09-07T20:54:29.273Z,20.90
2022-09-07T20:56:59.202Z,20.90
2022-09-07T20:59:29.870Z,20.90
2022-09-07T21:01:57.739Z,20.90
2022-09-07T21:04:27.439Z,20.90
2022-09-07T21:06:55.271Z,20.90
2022-09-07T21:09:23.160Z,20.80
2022-09-07T21:11:55.129Z,20.80
2022-09-07T21:14:24.874Z,20.80
2022-09-07T21:16:52.697Z,20.80
2022-09-07T21:19:20.734Z,20.80
2022-09-07T21:21:49.926Z,20.70
2022-09-07T21:24:20.495Z,20.60
2022-09-07T21:26:49.656Z,20.50
2022-09-07T21:29:19.072Z,20.50
